createdAt,value
2023-02-02T00:02:09.465Z,8.9
2023-02-02T00:07:47.431Z,8.8
2023-02-02T00:13:36.546Z,8.7
2023-02-02T00:19:33.891Z,8.6
2023-02-02T00:25:11.568Z,8.5
2023-02-02T00:30:49.086Z,8.5
2023-02-02T00:36:24.613Z,8.4
2023-02-02T00:41:59.557Z,8.4
2023-02-02T00:47:34.409Z,8.3
2023-02-02T00:53:10.334Z,8.3
2023-02-02T00:58:46.192Z,8.2
2023-02-02T01:04:22.346Z,8.1
2023-02-02T01:09:57.852Z,8.1
2023-02-02T01:15:33.151Z,8.1
2023-02-02T01:21:08.448Z,8
2023-02-02T01:26:44.173Z,7.9
2023-02-02T01:32:20.889Z,7.9
2023-02-02T01:37:56.462Z,7.9
2023-02-02T01:43:33.278Z,7.8
2023-02-02T01:49:08.140Z,7.8
2023-02-02T01:54:43.191Z,7.7
2023-02-02T02:00:18.422Z,7.7
2023-02-02T02:05:54.198Z,7.6
2023-02-02T02:11:30.079Z,7.6
2023-02-02T02:17:05.165Z,7.6
2023-02-02T02:22:40.557Z,7.6
2023-02-02T02:28:15.844Z,7.6
2023-02-02T02:33:51.286Z,7.6
2023-02-02T02:39:26.450Z,7.5
2023-02-02T02:45:02.543Z,7.6
2023-02-02T02:50:37.576Z,7.6
2023-02-02T02:56:13.098Z,7.6
2023-02-02T03:01:48.192Z,7.6
2023-02-02T03:07:29.643Z,7.5
2023-02-02T03:13:05.081Z,7.6
2023-02-02T03:18:46.459Z,7.6
2023-02-02T03:24:21.693Z,7.7
2023-02-02T03:29:57.642Z,7.7
2023-02-02T03:35:33.087Z,7.7
2023-02-02T03:41:08.960Z,7.7
2023-02-02T03:46:44.059Z,7.7
2023-02-02T03:52:19.933Z,7.7
2023-02-02T03:57:55.220Z,7.7
2023-02-02T04:03:30.769Z,7.6
2023-02-02T04:09:05.843Z,7.4
2023-02-02T04:14:41.264Z,7.3
2023-02-02T04:20:16.368Z,7.3
2023-02-02T04:25:51.435Z,7.2
2023-02-02T04:31:29.393Z,7.1
2023-02-02T04:37:06.741Z,7.1
2023-02-02T04:42:41.840Z,7
2023-02-02T04:48:18.095Z,7
2023-02-02T04:53:52.895Z,6.9
2023-02-02T04:59:28.553Z,6.9
2023-02-02T05:05:04.237Z,6.8
2023-02-02T05:10:40.752Z,6.7
2023-02-02T05:16:15.946Z,6.7
2023-02-02T05:21:52.735Z,6.6
2023-02-02T05:27:27.784Z,6.5
2023-02-02T05:33:03.461Z,6.5
2023-02-02T05:38:38.919Z,6.5
2023-02-02T05:44:14.063Z,6.5
2023-02-02T05:49:48.995Z,6.5
2023-02-02T05:55:25.261Z,6.5
2023-02-02T06:01:02.232Z,6.4
2023-02-02T06:06:37.566Z,6.4
2023-02-02T06:12:13.294Z,6.3
2023-02-02T06:17:51.322Z,6.2
2023-02-02T06:23:26.396Z,6.1
2023-02-02T06:29:01.877Z,6.1
2023-02-02T06:34:37.267Z,6.1
2023-02-02T06:40:12.159Z,6
2023-02-02T06:45:47.304Z,6
2023-02-02T06:51:23.388Z,6
2023-02-02T06:57:00.368Z,6
2023-02-02T07:02:36.283Z,5.9
2023-02-02T07:08:13.837Z,5.9
2023-02-02T07:13:49.931Z,5.9
2023-02-02T07:19:26.865Z,5.9
2023-02-02T07:25:02.845Z,4.7
2023-02-02T07:30:46.749Z,3.4
2023-02-02T07:36:35.598Z,3.1
2023-02-02T07:42:12.457Z,3
2023-02-02T07:47:56.786Z,3.4
2023-02-02T07:53:45.966Z,3.3
2023-02-02T07:59:28.092Z,3.4
2023-02-02T08:05:07.175Z,3.3
2023-02-02T08:11:02.948Z,3.7
2023-02-02T08:16:39.286Z,4
2023-02-02T08:22:20.589Z,4
2023-02-02T08:28:13.290Z,4.1
2023-02-02T08:33:57.740Z,4.4
2023-02-02T08:39:35.932Z,4.7
2023-02-02T08:46:03.664Z,4.9
2023-02-02T08:51:42.815Z,5
2023-02-02T08:57:18.381Z,5.1
2023-02-02T09:02:59.538Z,5.4
2023-02-02T09:08:35.016Z,5.7
2023-02-02T09:14:15.460Z,6
2023-02-02T09:19:51.913Z,6.3
2023-02-02T09:25:50.524Z,6.6
2023-02-02T09:31:30.146Z,7
2023-02-02T09:37:07.409Z,7.3
2023-02-02T09:42:44.346Z,7.6
2023-02-02T09:48:19.483Z,7.8
2023-02-02T09:53:56.154Z,8
2023-02-02T09:59:32.848Z,8.2
2023-02-02T10:05:10.603Z,8.4
2023-02-02T10:11:07.488Z,8.6
2023-02-02T10:16:43.145Z,8.8
2023-02-02T10:22:19.387Z,9
2023-02-02T10:27:57.956Z,9.1
2023-02-02T10:33:33.200Z,9.4
2023-02-02T10:39:09.376Z,9.4
2023-02-02T10:44:45.147Z,9.5
2023-02-02T10:50:20.807Z,9.7
2023-02-02T10:55:57.360Z,9.7
2023-02-02T11:01:34.142Z,10.1
2023-02-02T11:07:12.048Z,10.3
2023-02-02T11:13:05.812Z,10.4
2023-02-02T11:18:43.315Z,10.7
2023-02-02T11:24:19.946Z,10.8
2023-02-02T11:29:57.393Z,10.9
2023-02-02T11:35:33.770Z,10.8
2023-02-02T11:41:11.564Z,10.9
2023-02-02T11:46:47.042Z,10.9
2023-02-02T11:52:34.119Z,11.2
2023-02-02T11:58:11.764Z,11.3
2023-02-02T12:03:47.570Z,11.3
2023-02-02T12:09:24.328Z,11.6
2023-02-02T12:15:08.571Z,11.6
2023-02-02T12:20:44.053Z,11.7
2023-02-02T12:26:19.719Z,11.8
2023-02-02T12:31:56.609Z,12.1
2023-02-02T12:37:33.303Z,12.4
2023-02-02T12:43:08.392Z,12.6
2023-02-02T12:48:47.045Z,12.9
2023-02-02T12:54:33.997Z,13.3
2023-02-02T13:00:42.480Z,13.6
2023-02-02T13:06:32.628Z,13.6
2023-02-02T13:12:08.942Z,13.7
2023-02-02T13:17:47.202Z,13.9
2023-02-02T13:23:22.131Z,14.2
2023-02-02T13:28:57.912Z,14.5
2023-02-02T13:34:34.129Z,14.7
2023-02-02T13:40:09.075Z,15
2023-02-02T13:45:45.035Z,15.1
2023-02-02T13:51:22.734Z,15.4
2023-02-02T13:56:59.008Z,16.1
2023-02-02T14:02:34.584Z,16.8
2023-02-02T14:08:10.730Z,16.9
2023-02-02T14:13:53.414Z,17.1
2023-02-02T14:19:36.279Z,18.3
2023-02-02T14:25:21.701Z,18.6
2023-02-02T14:30:56.726Z,19.4
2023-02-02T14:36:37.610Z,20.2
2023-02-02T14:42:13.353Z,21.7
2023-02-02T14:47:48.273Z,23.1
2023-02-02T14:53:23.769Z,23.2
2023-02-02T14:59:02.811Z,22.5
2023-02-02T15:04:38.790Z,23
2023-02-02T15:10:21.512Z,20.1
2023-02-02T15:16:06.743Z,20.3
2023-02-02T15:21:43.308Z,21.7
2023-02-02T15:27:19.214Z,21.1
2023-02-02T15:32:54.907Z,17.7
2023-02-02T15:38:33.320Z,15.3
2023-02-02T15:44:08.171Z,14.2
2023-02-02T15:49:50.876Z,13.8
2023-02-02T15:55:35.538Z,13.2
2023-02-02T16:01:29.412Z,12.7
2023-02-02T16:07:04.304Z,12.4
2023-02-02T16:12:39.426Z,12.3
2023-02-02T16:18:23.289Z,11.9
2023-02-02T16:23:58.356Z,11.5
2023-02-02T16:29:34.175Z,11.2
2023-02-02T16:35:26.841Z,11
2023-02-02T16:41:06.238Z,10.7
2023-02-02T16:46:40.810Z,10.5
2023-02-02T16:52:16.866Z,10.3
2023-02-02T16:57:52.348Z,10
2023-02-02T17:03:27.315Z,9.9
2023-02-02T17:09:10.383Z,9.7
2023-02-02T17:15:11.744Z,9.6
2023-02-02T17:21:24.337Z,9.3
2023-02-02T17:27:15.183Z,9.1
2023-02-02T17:32:52.834Z,9.1
2023-02-02T17:38:27.954Z,8.9
2023-02-02T17:44:05.894Z,8.9
2023-02-02T17:49:42.351Z,8.8
2023-02-02T17:55:22.591Z,8.7
2023-02-02T18:01:00.581Z,8.9
2023-02-02T18:06:36.221Z,9.8
2023-02-02T18:12:11.190Z,10.1
2023-02-02T18:17:46.329Z,10.2
2023-02-02T18:23:21.444Z,10.3
2023-02-02T18:28:56.917Z,10.4
2023-02-02T18:34:59.445Z,10.5
2023-02-02T18:40:42.030Z,10.5
2023-02-02T18:46:17.520Z,10.6
2023-02-02T18:51:54.233Z,10.6
2023-02-02T18:57:30.206Z,10.6
2023-02-02T19:03:05.467Z,10.5
2023-02-02T19:09:01.089Z,10.5
2023-02-02T19:14:43.996Z,10.4
2023-02-02T19:20:18.924Z,10.4
2023-02-02T19:25:53.490Z,10.3
2023-02-02T19:31:29.049Z,10.2
2023-02-02T19:37:09.775Z,10.1
2023-02-02T19:42:44.660Z,10.1
2023-02-02T19:48:26.388Z,10.1
2023-02-02T19:54:10.662Z,10.1
2023-02-02T19:59:47.587Z,10
2023-02-02T20:05:29.647Z,9.9
2023-02-02T20:11:08.507Z,9.8
2023-02-02T20:16:43.414Z,9.8
2023-02-02T20:22:20.652Z,9.7
2023-02-02T20:27:57.024Z,9.6
2023-02-02T20:33:40.795Z,9.5
2023-02-02T20:39:16.210Z,9.5
2023-02-02T20:44:51.424Z,9.5
2023-02-02T20:50:27.460Z,9.4
2023-02-02T20:56:04.713Z,9.3
2023-02-02T21:01:41.865Z,9.2
2023-02-02T21:07:35.568Z,9.2
2023-02-02T21:13:10.754Z,9.1
2023-02-02T21:18:54.967Z,9.1
2023-02-02T21:24:58.543Z,9
2023-02-02T21:30:34.976Z,8.9
2023-02-02T21:36:12.318Z,8.8
2023-02-02T21:41:47.139Z,8.7
2023-02-02T21:47:28.651Z,8.7
2023-02-02T21:53:20.980Z,8.6
2023-02-02T21:58:56.023Z,8.5
2023-02-02T22:04:31.068Z,8.5
2023-02-02T22:10:06.740Z,8.5
2023-02-02T22:15:41.924Z,8.4
2023-02-02T22:21:31.377Z,8.4
2023-02-02T22:27:06.427Z,8.3
2023-02-02T22:32:57.263Z,8.3
2023-02-02T22:38:35.628Z,8.2
2023-02-02T22:44:10.528Z,8.1
2023-02-02T22:49:45.368Z,8.1
2023-02-02T22:55:20.765Z,8
2023-02-02T23:00:56.819Z,7.9
2023-02-02T23:06:32.828Z,7.9
2023-02-02T23:12:16.238Z,7.9
2023-02-02T23:17:51.048Z,7.8
2023-02-02T23:23:31.315Z,7.8
2023-02-02T23:29:07.879Z,7.7
2023-02-02T23:34:42.922Z,7.7
2023-02-02T23:40:18.111Z,7.6
2023-02-02T23:45:53.468Z,7.6
2023-02-02T23:51:28.449Z,7.5
2023-02-02T23:57:10.318Z,7.4
